Time;durP1;ratioP1;P1;durP2;ratioP2;P2;SDS_P1;SDS_P2;PMS_P1;PMS_P2;Temp;Humidity;BMP_temperature;BMP_pressure;BME280_temperature;BME280_humidity;BME280_pressure;Samples;Min_cycle;Max_cycle;Signal;HPM_P1;HPM_P2
2023/02/24 00:00:30;;;;;;;6.22;1.15;;;;;;;6.24;94.72;100102.53;5097345;28;20430;-67
2023/02/24 00:02:57;;;;;;;4.18;0.90;;;;;;;6.25;94.77;100099.66;5100195;28;20051;-67
2023/02/24 00:05:23;;;;;;;7.70;0.90;;;;;;;6.28;94.68;100095.78;5099080;28;20028;-67
2023/02/24 00:07:49;;;;;;;4.30;1.02;;;;;;;6.28;94.90;100087.78;5098663;28;20390;-68
2023/02/24 00:10:19;;;;;;;4.35;1.00;;;;;;;6.32;94.81;100081.03;5098410;28;20035;-66
2023/02/24 00:12:46;;;;;;;5.70;1.17;;;;;;;6.28;95.03;100071.75;5098368;28;20020;-67
2023/02/24 00:15:15;;;;;;;5.28;1.40;;;;;;;6.30;95.43;100067.06;5100251;28;20057;-67
2023/02/24 00:17:42;;;;;;;5.20;0.80;;;;;;;6.35;95.35;100069.97;5064970;28;20085;-67
2023/02/24 00:20:11;;;;;;;6.35;1.08;;;;;;;6.40;95.54;100064.06;5098059;28;20056;-67
2023/02/24 00:22:38;;;;;;;4.72;0.90;;;;;;;6.47;95.50;100056.94;5097850;28;20455;-67
2023/02/24 00:25:04;;;;;;;5.40;1.40;;;;;;;6.34;95.23;100018.38;5099061;28;20032;-67
2023/02/24 00:27:30;;;;;;;12.25;1.50;;;;;;;6.51;95.47;100037.66;5098700;28;20039;-67
2023/02/24 00:29:56;;;;;;;9.98;1.27;;;;;;;6.46;95.74;100017.88;5097008;28;20028;-67
2023/02/24 00:32:22;;;;;;;11.55;1.40;;;;;;;6.62;95.49;100025.59;5098244;28;20034;-67
2023/02/24 00:34:47;;;;;;;11.40;1.48;;;;;;;6.64;95.40;100023.56;5097003;28;20048;-67
2023/02/24 00:37:14;;;;;;;12.30;1.50;;;;;;;6.69;95.38;100017.63;5098860;28;20020;-67
2023/02/24 00:39:40;;;;;;;15.77;1.83;;;;;;;6.70;95.56;100012.13;5096473;28;20031;-68
2023/02/24 00:42:06;;;;;;;13.55;1.85;;;;;;;6.71;95.26;100003.06;5098654;28;20460;-68
2023/02/24 00:44:38;;;;;;;15.32;2.10;;;;;;;6.71;95.45;99996.91;5098815;28;20379;-67
2023/02/24 00:47:05;;;;;;;18.08;2.15;;;;;;;6.74;95.23;99996.50;5097980;28;20062;-67
2023/02/24 00:49:32;;;;;;;9.55;1.88;;;;;;;6.69;94.97;99986.41;5097289;28;20016;-67
2023/02/24 00:51:58;;;;;;;10.50;1.50;;;;;;;6.69;94.79;99988.22;5096381;28;20039;-67
2023/02/24 00:54:27;;;;;;;13.50;1.98;;;;;;;6.70;95.00;99982.72;5098038;28;20409;-67
2023/02/24 00:56:53;;;;;;;16.98;2.22;;;;;;;6.75;94.50;99969.56;5097397;28;20406;-67
2023/02/24 00:59:19;;;;;;;14.25;2.17;;;;;;;6.71;94.30;99957.63;5098913;28;20189;-67
2023/02/24 01:01:45;;;;;;;11.48;1.80;;;;;;;6.80;94.21;99959.13;5100391;28;20107;-67
2023/02/24 01:04:12;;;;;;;15.07;1.98;;;;;;;6.82;94.00;99958.91;5100647;28;20059;-67
2023/02/24 01:06:43;;;;;;;8.35;1.77;;;;;;;6.77;94.43;99946.16;5100331;28;20027;-67
2023/02/24 01:09:14;;;;;;;12.10;2.20;;;;;;;6.67;93.94;99934.97;5098961;28;20048;-68
2023/02/24 01:14:48;;;;;;;14.18;1.77;;;;;;;6.75;94.20;99929.47;5078167;28;20071;-67
2023/02/24 01:17:17;;;;;;;10.75;1.80;;;;;;;6.67;93.97;99905.56;5078075;28;20040;-67
2023/02/24 01:19:43;;;;;;;11.25;1.95;;;;;;;6.75;93.64;99910.75;5087879;28;20510;-67
2023/02/24 01:22:13;;;;;;;16.45;2.08;;;;;;;6.87;93.72;99908.38;5099407;28;20042;-67
2023/02/24 01:24:40;;;;;;;15.23;1.67;;;;;;;6.90;93.40;99907.97;5098565;28;20413;-67
2023/02/24 01:27:07;;;;;;;7.97;1.58;;;;;;;6.85;93.69;99894.34;5081658;28;20075;-67
2023/02/24 01:29:38;;;;;;;16.38;1.95;;;;;;;6.81;94.09;99893.09;5098702;28;20024;-66
2023/02/24 01:32:11;;;;;;;13.35;1.90;;;;;;;6.87;93.55;99889.66;5098598;28;20436;-67
2023/02/24 01:34:37;;;;;;;13.20;1.75;;;;;;;6.95;93.72;99883.31;5098119;28;20016;-67
2023/02/24 01:37:03;;;;;;;16.40;2.28;;;;;;;6.89;94.02;99862.69;5097229;28;20077;-67
2023/02/24 01:39:29;;;;;;;11.10;1.80;;;;;;;6.93;94.07;99862.13;5080792;28;20194;-66
2023/02/24 01:41:54;;;;;;;17.33;2.10;;;;;;;6.92;93.96;99860.47;5096716;28;20074;-68
2023/02/24 01:44:23;;;;;;;20.50;2.13;;;;;;;6.92;94.26;99860.47;5079953;28;20032;-67
2023/02/24 01:46:52;;;;;;;17.83;1.90;;;;;;;6.93;94.59;99846.06;5098524;28;20028;-67
2023/02/24 01:49:20;;;;;;;14.93;3.03;;;;;;;6.94;94.50;99841.53;5096573;28;20032;-67
2023/02/24 01:51:56;;;;;;;11.70;1.70;;;;;;;6.95;94.82;99835.97;5097152;28;20103;-67
2023/02/24 01:54:26;;;;;;;17.35;2.00;;;;;;;6.95;94.72;99827.97;5097360;28;20020;-67
2023/02/24 01:56:53;;;;;;;17.23;2.08;;;;;;;6.85;94.87;99805.28;5097133;28;20024;-68
2023/02/24 01:59:22;;;;;;;12.05;1.70;;;;;;;6.97;95.05;99815.22;5099403;28;20100;-67
2023/02/24 02:01:52;;;;;;;21.27;2.08;;;;;;;6.97;95.11;99804.53;5098583;28;20055;-67
2023/02/24 02:04:30;;;;;;;19.05;2.47;;;;;;;6.96;95.29;99797.53;5097986;28;20146;-67
2023/02/24 02:06:57;;;;;;;17.63;2.72;;;;;;;6.97;94.94;99777.78;5098995;28;20032;-67
2023/02/24 02:09:22;;;;;;;19.35;2.30;;;;;;;7.01;94.89;99778.19;5098643;28;20035;-67
2023/02/24 02:11:51;;;;;;;17.60;2.10;;;;;;;6.95;95.09;99769.13;5093676;28;20032;-67
2023/02/24 02:14:23;;;;;;;20.38;2.63;;;;;;;6.91;95.72;99757.19;5092964;28;20032;-67
2023/02/24 02:16:50;;;;;;;20.02;2.53;;;;;;;6.93;95.79;99760.50;5094616;28;20478;-67
2023/02/24 02:19:48;;;;;;;20.17;2.45;;;;;;;6.92;96.01;99750.84;5093261;28;20130;-67
2023/02/24 02:22:47;;;;;;;20.90;2.50;;;;;;;6.95;95.89;99746.91;5097900;28;20024;-67
2023/02/24 02:25:24;;;;;;;22.50;3.60;;;;;;;6.78;96.60;99714.34;5099657;28;20020;-67
2023/02/24 02:27:56;;;;;;;15.90;2.17;;;;;;;6.76;97.11;99727.94;5098939;28;20103;-67
2023/02/24 02:30:42;;;;;;;16.05;2.40;;;;;;;6.87;96.66;99720.38;5098621;28;20054;-67
2023/02/24 02:33:46;;;;;;;18.60;2.45;;;;;;;6.90;97.41;99712.75;5098981;28;20099;-67
2023/02/24 02:36:34;;;;;;;16.27;2.70;;;;;;;6.81;97.49;99708.63;5098321;28;20020;-68
2023/02/24 02:39:19;;;;;;;11.13;2.20;;;;;;;6.79;97.55;99695.47;5098116;28;20113;-67
2023/02/24 02:42:04;;;;;;;15.07;1.87;;;;;;;6.74;98.12;99681.84;5097813;28;20028;-67
2023/02/24 02:44:34;;;;;;;14.65;2.03;;;;;;;6.76;97.54;99673.66;5093041;28;20253;-67
2023/02/24 02:47:08;;;;;;;12.55;1.88;;;;;;;6.76;98.47;99670.97;5096572;28;20202;-67
2023/02/24 02:49:39;;;;;;;16.98;1.60;;;;;;;6.67;98.66;99659.63;5093919;28;20051;-67
2023/02/24 02:52:12;;;;;;;10.43;1.33;;;;;;;6.52;98.74;99625.06;5097593;28;20028;-66
2023/02/24 02:54:48;;;;;;;8.38;1.30;;;;;;;6.72;98.38;99640.31;5097404;28;20111;-67
2023/02/24 02:57:30;;;;;;;14.25;1.42;;;;;;;6.72;98.11;99642.97;5096985;28;20133;-67
2023/02/24 03:00:12;;;;;;;10.88;1.48;;;;;;;6.77;97.40;99632.50;5096532;28;20016;-67
2023/02/24 03:02:44;;;;;;;9.02;1.48;;;;;;;6.53;98.73;99618.69;5093762;28;20063;-67
2023/02/24 03:05:16;;;;;;;9.00;1.20;;;;;;;6.41;98.48;99590.91;5096165;28;20402;-67
2023/02/24 03:07:46;;;;;;;13.32;1.23;;;;;;;6.35;98.83;99589.84;5097609;28;20016;-67
2023/02/24 03:10:19;;;;;;;12.10;1.05;;;;;;;6.40;98.75;99591.13;5097815;28;20390;-67
2023/02/24 03:12:50;;;;;;;8.20;1.45;;;;;;;6.44;98.28;99590.50;5098585;28;20051;-67
2023/02/24 03:15:19;;;;;;;11.23;1.30;;;;;;;6.25;99.09;99569.88;5097612;28;20085;-67
2023/02/24 03:17:47;;;;;;;8.63;1.27;;;;;;;6.25;99.15;99570.72;5097421;28;20063;-67
2023/02/24 03:20:21;;;;;;;13.48;1.45;;;;;;;6.41;98.37;99556.16;5080456;28;20085;-67
2023/02/24 03:23:04;;;;;;;10.02;1.42;;;;;;;6.40;98.47;99562.53;5098421;28;20455;-67
2023/02/24 03:25:57;;;;;;;10.02;1.35;;;;;;;6.41;98.52;99545.47;5098745;28;20028;-67
2023/02/24 03:29:04;;;;;;;10.88;1.67;;;;;;;6.32;98.51;99536.00;5099228;28;20024;-67
2023/02/24 03:31:39;;;;;;;11.45;1.30;;;;;;;6.23;99.30;99523.88;5099719;28;20023;-67
2023/02/24 03:34:10;;;;;;;14.25;1.50;;;;;;;6.26;98.70;99513.63;5098131;28;20016;-67
2023/02/24 03:36:36;;;;;;;10.88;1.40;;;;;;;6.24;99.57;99504.16;5097448;28;20023;-67
2023/02/24 03:39:04;;;;;;;8.00;1.17;;;;;;;6.29;99.31;99502.53;5098313;28;20046;-67
2023/02/24 03:41:37;;;;;;;9.40;1.40;;;;;;;6.32;98.78;99477.22;5099375;28;20032;-67
2023/02/24 03:44:06;;;;;;;10.10;1.30;;;;;;;6.38;98.89;99483.63;5100266;28;20023;-67
2023/02/24 03:46:33;;;;;;;10.18;1.60;;;;;;;6.30;99.21;99472.09;5101698;28;20060;-67
2023/02/24 03:49:08;;;;;;;9.48;1.20;;;;;;;6.37;99.45;99473.97;5100825;28;20024;-67
2023/02/24 03:51:36;;;;;;;10.15;1.20;;;;;;;6.35;99.76;99471.47;5100036;28;20111;-67
2023/02/24 03:54:29;;;;;;;13.02;1.30;;;;;;;6.35;99.71;99464.28;5099641;28;20032;-68
2023/02/24 03:57:18;;;;;;;5.57;1.10;;;;;;;6.41;99.63;99446.63;5099267;28;20028;-67
2023/02/24 03:59:54;;;;;;;7.82;1.10;;;;;;;6.30;99.92;99444.56;5099760;28;20035;-66
2023/02/24 04:02:25;;;;;;;7.07;1.17;;;;;;;6.27;100.00;99418.25;5099740;28;20028;-68
2023/02/24 04:05:09;;;;;;;8.90;0.98;;;;;;;6.25;100.00;99422.97;5096764;28;20020;-67
2023/02/24 04:08:08;;;;;;;9.90;1.35;;;;;;;6.40;100.00;99404.91;5095449;28;20016;-66
2023/02/24 04:10:54;;;;;;;6.90;1.00;;;;;;;6.31;100.00;99404.28;5063961;28;20055;-68
2023/02/24 04:13:43;;;;;;;9.20;1.20;;;;;;;6.33;100.00;99398.75;5096032;28;20483;-67
2023/02/24 04:16:27;;;;;;;8.70;1.25;;;;;;;6.39;99.93;99389.91;5097258;28;20351;-67
2023/02/24 04:19:02;;;;;;;8.50;1.33;;;;;;;6.48;99.57;99394.00;5098327;28;20040;-67
2023/02/24 04:21:30;;;;;;;6.30;1.90;;;;;;;6.44;99.50;99386.59;5099681;28;20024;-68
2023/02/24 04:23:59;;;;;;;6.10;1.05;;;;;;;6.30;100.00;99356.41;5115265;28;20031;-67
2023/02/24 04:26:27;;;;;;;9.38;1.20;;;;;;;6.29;100.00;99355.59;5102355;28;20136;-67
2023/02/24 04:28:55;;;;;;;12.30;1.30;;;;;;;6.35;100.00;99360.09;5111525;28;20020;-67
2023/02/24 04:31:23;;;;;;;7.60;1.27;;;;;;;6.16;100.00;99320.03;5110001;28;20486;-67
2023/02/24 04:33:49;;;;;;;16.63;1.40;;;;;;;6.30;100.00;99327.84;5113862;28;20027;-68
2023/02/24 04:36:19;;;;;;;8.45;1.40;;;;;;;6.37;100.00;99343.06;5083189;28;20045;-67
2023/02/24 04:38:45;;;;;;;11.13;1.30;;;;;;;6.31;100.00;99328.66;5118404;28;20078;-67
2023/02/24 04:41:16;;;;;;;22.58;1.88;;;;;;;6.30;100.00;99322.50;5119568;28;20111;-67
2023/02/24 04:43:42;;;;;;;9.40;1.52;;;;;;;6.29;100.00;99315.53;5118714;28;20030;-67
2023/02/24 04:46:07;;;;;;;10.30;1.50;;;;;;;6.21;100.00;99312.25;5101334;28;20114;-67
2023/02/24 04:48:34;;;;;;;12.27;1.70;;;;;;;6.16;100.00;99302.19;5120122;28;20053;-68
2023/02/24 04:51:04;;;;;;;9.30;1.40;;;;;;;6.24;100.00;99285.13;5119464;28;20028;-67
2023/02/24 04:53:30;;;;;;;11.60;1.15;;;;;;;6.34;100.00;99282.84;5118127;28;20088;-67
2023/02/24 04:55:55;;;;;;;9.20;1.70;;;;;;;6.27;100.00;99269.50;5117922;28;20031;-67
2023/02/24 04:58:28;;;;;;;20.42;2.70;;;;;;;6.40;100.00;99267.84;5082826;28;20597;-68
2023/02/24 05:00:54;;;;;;;11.55;1.63;;;;;;;6.33;100.00;99239.28;5117813;28;20497;-68
2023/02/24 05:03:25;;;;;;;9.35;1.60;;;;;;;6.51;100.00;99251.13;5117783;28;20125;-67
2023/02/24 05:05:55;;;;;;;9.20;1.50;;;;;;;6.49;100.00;99248.69;5118418;28;20024;-69
2023/02/24 05:08:21;;;;;;;12.20;2.15;;;;;;;6.53;100.00;99241.88;5113657;28;20054;-68
2023/02/24 05:10:48;;;;;;;12.60;1.50;;;;;;;6.49;100.00;99221.13;5115016;27;20020;-68
2023/02/24 05:13:20;;;;;;;12.15;1.25;;;;;;;6.50;100.00;99218.25;5113614;28;20470;-68
2023/02/24 05:15:49;;;;;;;12.20;1.45;;;;;;;6.48;100.00;99208.81;5119034;28;20027;-69
2023/02/24 05:18:16;;;;;;;6.45;1.48;;;;;;;6.54;100.00;99205.28;5116916;28;20525;-68
2023/02/24 05:23:32;;;;;;;10.32;1.20;;;;;;;6.47;100.00;99175.94;5118361;28;20061;-68
2023/02/24 05:25:59;;;;;;;11.85;1.10;;;;;;;6.53;100.00;99169.72;5117986;28;20031;-69
2023/02/24 05:28:25;;;;;;;8.00;1.00;;;;;;;6.49;100.00;99165.84;5117297;28;20061;-69
2023/02/24 05:30:53;;;;;;;12.80;1.20;;;;;;;6.58;100.00;99151.19;5118758;28;20028;-68
2023/02/24 05:33:22;;;;;;;14.27;1.10;;;;;;;6.61;100.00;99157.16;5118217;28;20027;-69
2023/02/24 05:35:49;;;;;;;9.45;1.10;;;;;;;6.57;100.00;99151.41;5116756;28;20709;-70
2023/02/24 05:38:18;;;;;;;7.60;0.90;;;;;;;6.61;100.00;99141.94;5117967;28;20036;-69
2023/02/24 05:40:46;;;;;;;10.93;1.13;;;;;;;6.62;100.00;99132.06;5118043;28;20401;-68
2023/02/24 05:43:18;;;;;;;8.57;1.17;;;;;;;6.61;100.00;99125.09;5118852;28;20023;-69
2023/02/24 05:45:44;;;;;;;5.85;0.80;;;;;;;6.55;100.00;99130.25;5116762;28;20126;-70
2023/02/24 05:48:13;;;;;;;13.00;0.98;;;;;;;6.56;100.00;99125.75;5116802;28;20034;-70
2023/02/24 05:50:40;;;;;;;7.13;0.93;;;;;;;6.45;100.00;99111.19;5117386;28;20023;-70
2023/02/24 05:53:08;;;;;;;9.57;0.90;;;;;;;6.47;100.00;99094.94;5115636;28;20080;-70
2023/02/24 05:55:35;;;;;;;8.50;1.00;;;;;;;6.57;100.00;99092.63;5115596;28;20111;-69
2023/02/24 05:58:05;;;;;;;8.50;0.82;;;;;;;6.38;100.00;99083.69;5115750;28;20016;-69
2023/02/24 06:00:30;;;;;;;6.80;0.80;;;;;;;6.34;100.00;99077.13;5117646;28;20096;-70
2023/02/24 06:03:07;;;;;;;8.38;0.80;;;;;;;6.47;100.00;99078.91;5117051;28;20478;-69
2023/02/24 06:05:33;;;;;;;9.40;0.80;;;;;;;6.35;100.00;99074.25;5117081;28;20110;-69
2023/02/24 06:08:05;;;;;;;11.02;1.10;;;;;;;6.49;100.00;99064.31;5117173;28;20062;-68
2023/02/24 06:10:33;;;;;;;11.93;1.27;;;;;;;6.55;100.00;99054.59;5116664;28;20122;-67
2023/02/24 06:13:02;;;;;;;10.02;1.10;;;;;;;6.54;100.00;99040.44;5115713;28;20027;-66
2023/02/24 06:15:29;;;;;;;7.03;1.13;;;;;;;6.48;100.00;99035.13;5116082;28;20032;-67
2023/02/24 06:17:59;;;;;;;12.77;1.23;;;;;;;6.47;100.00;99026.31;5115563;28;20024;-67
2023/02/24 06:20:26;;;;;;;8.85;1.10;;;;;;;6.55;100.00;99025.22;5099466;28;20043;-68
2023/02/24 06:22:54;;;;;;;12.60;1.20;;;;;;;6.38;100.00;98992.84;5117159;28;20027;-67
2023/02/24 06:25:23;;;;;;;10.52;1.20;;;;;;;6.59;100.00;99011.22;5117244;28;20566;-69
2023/02/24 06:27:54;;;;;;;20.52;1.73;;;;;;;6.62;100.00;99007.25;5117150;28;20061;-69
2023/02/24 06:30:21;;;;;;;12.88;1.23;;;;;;;6.68;100.00;98994.91;5116403;28;20374;-66
2023/02/24 06:32:47;;;;;;;15.82;1.50;;;;;;;6.67;100.00;98990.59;5115800;28;20081;-69
2023/02/24 06:35:13;;;;;;;10.82;1.20;;;;;;;6.67;100.00;98988.75;5117368;28;20035;-66
2023/02/24 06:37:39;;;;;;;17.60;5.45;;;;;;;6.67;100.00;98980.72;5082313;28;20038;-67
2023/02/24 06:40:14;;;;;;;19.58;2.72;;;;;;;6.49;100.00;98946.75;5116558;28;20031;-66
2023/02/24 06:42:45;;;;;;;11.70;1.23;;;;;;;6.78;100.00;98957.78;5117223;28;20085;-67
2023/02/24 06:45:11;;;;;;;15.98;1.52;;;;;;;6.83;100.00;98960.63;5117179;28;20438;-67
2023/02/24 06:47:37;;;;;;;16.00;1.38;;;;;;;6.92;100.00;98953.13;5115486;28;20043;-67
2023/02/24 06:50:06;;;;;;;15.88;1.65;;;;;;;6.82;100.00;98934.94;5116484;28;20024;-70
2023/02/24 06:52:32;;;;;;;13.68;1.50;;;;;;;6.93;100.00;98941.44;5115227;28;20165;-68
2023/02/24 06:54:58;;;;;;;14.98;1.20;;;;;;;6.97;100.00;98932.72;5098584;28;20371;-69
2023/02/24 06:57:23;;;;;;;14.70;1.95;;;;;;;7.03;100.00;98934.53;5098691;28;20057;-68
2023/02/24 06:59:49;;;;;;;15.25;1.58;;;;;;;7.05;100.00;98934.28;5117030;28;20024;-68
2023/02/24 07:02:16;;;;;;;17.77;2.15;;;;;;;7.11;100.00;98928.06;5116142;28;20450;-68
2023/02/24 07:04:46;;;;;;;15.48;2.03;;;;;;;7.11;100.00;98922.69;5083348;28;20048;-68
2023/02/24 07:07:13;;;;;;;15.65;1.90;;;;;;;7.03;100.00;98894.41;5094173;28;20026;-68
2023/02/24 07:09:40;;;;;;;19.08;2.05;;;;;;;7.24;100.00;98916.38;5097341;28;20024;-69
2023/02/24 07:12:06;;;;;;;22.27;2.30;;;;;;;7.29;100.00;98908.53;5100672;28;20047;-68
2023/02/24 07:14:32;;;;;;;22.02;2.50;;;;;;;7.27;100.00;98891.88;5099767;28;20024;-69
2023/02/24 07:16:58;;;;;;;12.45;2.03;;;;;;;6.94;100.00;98902.94;5100488;28;20043;-69
2023/02/24 07:19:27;;;;;;;13.93;2.67;;;;;;;7.09;100.00;98903.41;5098726;28;20051;-66
2023/02/24 07:22:02;;;;;;;9.38;2.80;;;;;;;7.11;100.00;98893.28;5101399;28;20020;-67
2023/02/24 07:24:35;;;;;;;10.77;2.97;;;;;;;6.97;100.00;98873.09;5099351;28;20028;-67
2023/02/24 07:27:05;;;;;;;10.70;2.40;;;;;;;6.92;100.00;98879.13;5101626;28;20028;-67
2023/02/24 07:29:32;;;;;;;8.60;1.98;;;;;;;6.88;100.00;98877.91;5099731;28;20519;-66
2023/02/24 07:32:01;;;;;;;8.27;2.25;;;;;;;6.74;100.00;98855.84;5106550;28;20035;-66
2023/02/24 07:34:28;;;;;;;5.15;2.53;;;;;;;6.82;100.00;98870.78;5114439;28;20016;-66
2023/02/24 07:36:54;;;;;;;10.35;2.33;;;;;;;6.83;100.00;98870.56;5113933;28;20126;-66
2023/02/24 07:39:21;;;;;;;12.35;2.72;;;;;;;6.93;100.00;98861.22;5115320;28;20019;-66
2023/02/24 07:41:51;;;;;;;13.00;2.92;;;;;;;6.90;100.00;98845.63;5112833;28;20028;-66
2023/02/24 07:44:18;;;;;;;21.45;3.53;;;;;;;6.91;100.00;98834.69;5111669;28;20062;-66
2023/02/24 07:46:45;;;;;;;19.77;2.80;;;;;;;7.07;100.00;98868.84;5101135;28;20035;-66
2023/02/24 07:49:13;;;;;;;16.45;2.35;;;;;;;7.27;100.00;98873.16;5101441;28;20028;-68
2023/02/24 07:51:39;;;;;;;13.40;2.20;;;;;;;7.33;100.00;98871.44;5100788;28;20024;-68
2023/02/24 07:54:07;;;;;;;12.88;1.42;;;;;;;7.29;100.00;98866.53;5101332;28;20274;-66
2023/02/24 07:56:33;;;;;;;17.35;1.38;;;;;;;7.36;100.00;98868.31;5099692;28;20102;-68
2023/02/24 07:59:02;;;;;;;11.35;1.42;;;;;;;7.42;100.00;98859.38;5065909;28;20032;-69
2023/02/24 08:01:31;;;;;;;10.65;1.08;;;;;;;7.51;100.00;98858.81;5100169;28;20375;-67
2023/02/24 08:04:00;;;;;;;16.88;1.67;;;;;;;7.49;100.00;98855.56;5101455;28;20089;-68
2023/02/24 08:06:37;;;;;;;12.10;1.30;;;;;;;7.68;100.00;98855.50;5101105;28;20024;-68
2023/02/24 08:11:57;;;;;;;11.32;1.30;;;;;;;7.61;100.00;98860.13;5076270;28;20043;-70
2023/02/24 08:14:33;;;;;;;11.70;1.13;;;;;;;7.76;100.00;98856.00;5100155;28;20028;-68
2023/02/24 08:17:04;;;;;;;9.90;1.80;;;;;;;7.60;100.00;98861.19;5099524;28;20425;-67
2023/02/24 08:19:38;;;;;;;11.20;1.48;;;;;;;7.65;100.00;98858.63;5100567;28;20044;-69
2023/02/24 08:22:19;;;;;;;8.18;0.80;;;;;;;7.60;100.00;98839.78;5081867;28;20056;-67
2023/02/24 08:24:59;;;;;;;9.68;0.90;;;;;;;7.59;100.00;98852.34;5099812;28;20028;-67
2023/02/24 08:27:29;;;;;;;5.93;0.80;;;;;;;7.67;100.00;98853.88;5098203;28;20480;-68
2023/02/24 08:30:01;;;;;;;7.55;1.08;;;;;;;7.69;100.00;98857.97;5097049;28;20482;-68
2023/02/24 08:32:36;;;;;;;11.65;1.30;;;;;;;7.68;100.00;98855.50;5099301;28;20409;-67
2023/02/24 08:35:14;;;;;;;11.07;1.08;;;;;;;7.77;100.00;98846.91;5099286;28;20561;-70
2023/02/24 08:37:47;;;;;;;7.65;0.90;;;;;;;7.41;100.00;98820.28;5098460;28;20047;-69
2023/02/24 08:40:38;;;;;;;6.10;0.90;;;;;;;7.43;100.00;98847.63;5097573;28;20028;-69
2023/02/24 08:43:16;;;;;;;9.07;1.23;;;;;;;7.67;100.00;98843.16;5099554;28;20263;-70
2023/02/24 08:45:43;;;;;;;10.27;0.90;;;;;;;7.69;100.00;98844.56;5099684;28;20016;-69
2023/02/24 08:48:24;;;;;;;5.50;0.77;;;;;;;7.76;100.00;98847.16;5099609;28;20063;-66
2023/02/24 08:50:53;;;;;;;5.72;0.70;;;;;;;7.45;100.00;98846.38;5100399;28;20024;-65
2023/02/24 08:53:19;;;;;;;4.95;0.85;;;;;;;7.29;100.00;98853.16;5082301;28;20126;-66
2023/02/24 08:55:50;;;;;;;6.38;0.70;;;;;;;7.32;100.00;98848.38;5097659;28;20078;-66
2023/02/24 08:58:17;;;;;;;8.50;0.70;;;;;;;7.48;100.00;98847.75;5099785;28;20107;-66
2023/02/24 09:00:49;;;;;;;8.68;1.08;;;;;;;7.53;100.00;98846.03;5099708;28;20366;-66
2023/02/24 09:03:27;;;;;;;8.77;1.05;;;;;;;7.27;100.00;98846.38;5099881;28;20059;-67
2023/02/24 09:06:04;;;;;;;7.05;0.90;;;;;;;7.26;100.00;98845.56;5100025;28;20034;-69
2023/02/24 09:08:32;;;;;;;7.57;0.60;;;;;;;7.19;100.00;98842.19;5101099;28;20039;-69
2023/02/24 09:11:08;;;;;;;9.23;0.90;;;;;;;7.21;100.00;98852.63;5100149;28;20023;-69
2023/02/24 09:13:50;;;;;;;11.38;0.68;;;;;;;7.29;99.37;98850.47;5099976;28;20039;-69
2023/02/24 09:16:19;;;;;;;9.95;1.45;;;;;;;7.45;98.84;98843.69;5101445;28;20047;-69
2023/02/24 09:19:39;;;;;;;12.38;1.00;;;;;;;7.58;98.42;98845.34;5099594;28;20127;-69
2023/02/24 09:24:25;;;;;;;13.88;1.30;;;;;;;7.62;98.29;98837.69;5100623;28;20032;-69
2023/02/24 09:26:57;;;;;;;8.75;1.08;;;;;;;7.54;98.77;98820.91;5101380;28;20078;-69
2023/02/24 09:29:33;;;;;;;9.38;0.75;;;;;;;7.68;98.54;98831.41;5083537;28;20070;-69
2023/02/24 09:32:04;;;;;;;6.15;0.90;;;;;;;7.68;98.27;98828.72;5100457;28;20097;-69
2023/02/24 09:34:42;;;;;;;11.15;1.17;;;;;;;7.46;98.80;98828.44;5101042;28;20065;-69
2023/02/24 09:37:23;;;;;;;8.10;1.02;;;;;;;7.62;98.34;98838.50;5099738;28;20547;-69
2023/02/24 09:42:45;;;;;;;5.95;1.00;;;;;;;7.88;97.40;98825.75;5100615;28;20028;-69
2023/02/24 09:45:31;;;;;;;6.95;0.80;;;;;;;7.87;97.76;98824.94;5085827;28;20028;-68
2023/02/24 09:48:09;;;;;;;6.45;0.60;;;;;;;7.86;97.17;98823.31;5102628;28;20035;-69
2023/02/24 09:50:59;;;;;;;9.95;0.95;;;;;;;7.78;97.30;98810.25;5081401;28;20115;-68
2023/02/24 09:53:28;;;;;;;4.80;0.95;;;;;;;8.05;97.14;98820.56;5081305;28;20120;-68
2023/02/24 09:55:59;;;;;;;5.95;0.80;;;;;;;8.08;96.72;98812.03;5079256;28;20020;-68
2023/02/24 09:58:36;;;;;;;7.35;0.70;;;;;;;8.14;97.30;98811.13;5081693;28;20044;-68
2023/02/24 10:01:41;;;;;;;10.20;0.95;;;;;;;8.09;97.57;98809.13;5078174;28;20162;-68
2023/02/24 10:04:21;;;;;;;7.45;0.80;;;;;;;8.05;96.79;98793.78;5079853;28;20103;-68
2023/02/24 10:07:09;;;;;;;7.80;1.42;;;;;;;8.19;96.46;98795.16;5076121;28;20032;-67
2023/02/24 10:09:42;;;;;;;9.68;2.03;;;;;;;8.21;96.54;98799.25;5086404;28;20027;-67
2023/02/24 10:12:22;;;;;;;7.30;1.27;;;;;;;8.38;96.73;98796.72;5100210;28;20035;-67
2023/02/24 10:15:31;;;;;;;7.03;0.90;;;;;;;8.46;96.08;98795.53;5099579;28;20496;-68
2023/02/24 10:18:04;;;;;;;8.23;1.17;;;;;;;8.32;96.81;98783.41;5103999;28;20016;-66
2023/02/24 10:20:39;;;;;;;9.48;1.98;;;;;;;8.37;96.43;98792.34;5104773;28;20032;-66
2023/02/24 10:23:45;;;;;;;11.60;1.45;;;;;;;8.40;96.47;98786.56;5103308;28;20031;-68
2023/02/24 10:26:31;;;;;;;9.73;1.30;;;;;;;8.39;96.95;98784.94;5101431;28;20040;-66
2023/02/24 10:29:21;;;;;;;14.75;2.53;;;;;;;8.41;97.10;98777.50;5101881;28;20055;-68
2023/02/24 10:31:56;;;;;;;16.85;2.65;;;;;;;8.60;96.26;98775.47;5101928;28;20020;-68
2023/02/24 10:34:31;;;;;;;18.85;3.25;;;;;;;8.66;96.27;98771.03;5101971;28;20039;-67
2023/02/24 10:36:59;;;;;;;;;;;;;;;8.75;96.55;98779.53;5099568;28;20028;-69
2023/02/24 10:39:25;;;;;;;10.25;1.73;;;;;;;8.68;96.15;98772.44;5100755;28;20000;-69
2023/02/24 10:41:57;;;;;;;12.00;1.58;;;;;;;8.63;96.74;98752.75;5096396;28;20783;-69
2023/02/24 10:44:25;;;;;;;14.35;2.63;;;;;;;8.80;96.79;98763.53;5096503;28;20089;-68
2023/02/24 10:47:11;;;;;;;15.65;3.20;;;;;;;8.96;95.92;98761.97;5096872;28;20091;-67
2023/02/24 10:49:55;;;;;;;18.10;6.97;;;;;;;8.97;96.45;98759.03;5097295;28;20031;-67
2023/02/24 10:58:21;;;;;;;;;;;;;;;9.23;95.81;98756.84;5099515;28;20032;-67
2023/02/24 11:00:59;;;;;;;7.53;1.05;;;;;;;9.32;95.24;98764.28;5097828;28;19908;-68
2023/02/24 11:04:00;;;;;;;6.35;1.40;;;;;;;9.45;95.38;98765.03;5095287;28;20032;-67
2023/02/24 11:09:18;;;;;;;13.52;1.20;;;;;;;9.49;95.29;98750.06;5098092;28;20458;-68
2023/02/24 11:17:26;;;;;;;7.75;1.50;;;;;;;9.44;95.62;98755.34;5095405;28;20046;-67
2023/02/24 11:19:59;;;;;;;11.23;1.38;;;;;;;9.34;95.91;98764.03;5098753;28;20048;-67
2023/02/24 11:22:35;;;;;;;10.52;1.35;;;;;;;9.29;96.71;98762.06;5099476;28;20047;-68
2023/02/24 11:25:16;;;;;;;17.30;1.52;;;;;;;9.25;96.71;98754.75;5095291;28;20051;-68
2023/02/24 11:27:44;;;;;;;11.90;1.20;;;;;;;9.39;96.06;98764.94;5096775;28;20372;-68
2023/02/24 11:30:29;;;;;;;10.27;1.40;;;;;;;9.46;95.84;98767.47;5097419;28;20477;-68
2023/02/24 11:33:16;;;;;;;11.05;1.13;;;;;;;9.32;96.70;98763.47;5098119;28;20024;-68
2023/02/24 11:35:47;;;;;;;8.32;0.77;;;;;;;9.37;95.79;98767.06;5097871;28;20048;-68
2023/02/24 11:38:32;;;;;;;6.95;1.05;;;;;;;9.33;95.84;98771.25;5095125;28;20028;-67
2023/02/24 11:41:04;;;;;;;;;;;;;;;9.17;95.30;98769.34;5097465;28;20093;-67
2023/02/24 11:43:34;;;;;;;9.63;0.88;;;;;;;9.17;95.69;98772.03;5094862;28;19914;-67
2023/02/24 11:46:08;;;;;;;10.60;1.10;;;;;;;8.81;96.74;98779.41;5097858;28;20058;-66
2023/02/24 11:48:50;;;;;;;6.70;1.20;;;;;;;8.84;96.61;98776.25;5097857;28;20024;-66
2023/02/24 11:51:19;;;;;;;11.18;1.52;;;;;;;8.50;97.59;98775.25;5078827;28;20104;-67
2023/02/24 11:54:11;;;;;;;9.48;1.30;;;;;;;8.30;98.80;98780.94;5077131;28;20107;-68
2023/02/24 11:56:43;;;;;;;9.98;1.30;;;;;;;8.46;97.39;98784.81;5078363;28;20024;-69
2023/02/24 11:59:19;;;;;;;6.43;1.10;;;;;;;8.10;98.16;98775.13;5079377;28;20760;-68
2023/02/24 12:01:58;;;;;;;11.25;1.30;;;;;;;7.99;98.58;98776.75;5080384;28;20017;-68
2023/02/24 12:04:36;;;;;;;7.53;1.20;;;;;;;7.96;99.13;98775.34;5062644;28;20411;-66
2023/02/24 12:07:08;;;;;;;8.93;1.70;;;;;;;7.70;99.85;98786.50;5079044;28;20039;-66
2023/02/24 12:09:43;;;;;;;4.90;1.00;;;;;;;7.79;100.00;98782.44;5082379;28;20028;-66
2023/02/24 12:12:22;;;;;;;10.73;1.10;;;;;;;7.60;100.00;98784.38;5079924;28;20028;-66
2023/02/24 12:14:56;;;;;;;10.80;1.20;;;;;;;7.59;100.00;98764.03;5072030;28;20032;-66
2023/02/24 12:17:36;;;;;;;8.68;1.67;;;;;;;7.29;100.00;98801.50;5075651;28;20243;-66
2023/02/24 12:20:14;;;;;;;8.77;1.02;;;;;;;7.63;100.00;98791.13;5077088;28;20048;-65
2023/02/24 12:22:49;;;;;;;6.95;1.10;;;;;;;7.47;100.00;98800.63;5078679;28;20197;-66
2023/02/24 12:25:18;;;;;;;;;;;;;;;7.09;100.00;98798.28;5082299;28;20051;-66
2023/02/24 12:28:11;;;;;;;14.05;1.45;;;;;;;7.35;100.00;98803.28;5095433;28;19916;-65